Startpagina
METAR-TAF:

METAR-TAF

Vliegvelden :

Chengdu, China

Internationale luchthaven Chengdu Shuangliu

breedte: 30-40N, lengte: 104-01E, hoogte: 508 m

Actueel weer

Dit bericht is 25 minuten geleden gemaakt, om 13:00 UTC
Wind 4 kt uit variabele richting
Temperatuur 25°C
Vochtigheid 79%
Druk 1014 hPa
Zicht 10 km of meer
geen wolken onder 1500 m en geen cumulonimbus

METAR: ZUUU 191300Z VRB02MPS CAVOK 25/21 Q1014 NOSIG

Tijdstip: 21:25 (13:25 UTC)

Verwachting

Dit bericht is 5 uur en het 10 minuten geleden gemaakt, om 08:15 UTC
Verwachting geldig van 19 om 12 UTC tot 20 om 12 UTC
Wind 6 kt uit het zuidwesten
Zicht: 5000 m
Verspreide wolken op 5000 ft
nevel

TAF: ZUUU 190815Z 1912/2012 22003MPS 5000 BR SCT050 TX29/2007Z TN20/1922Z

Waarnemingen en weersverwachtingen van meer dan 4000 vliegvelden (METAR en TAF).

De beschikbare stations zijn de gele en rode punten op de kaart.

Ga met uw muis naar het station om de naam te zien.

Klik dan om waarnemingen en weersverwachtingen te zien.

kaart wijzigen: klik op de groene knoppen met een zwart kruis om in te zoomen, op de groene knop met een streepje om uit te zoomen of op de groene pijlen voor aangrenzende kaarten.


METAR-TAF: